createdAt,value
2023-02-08T00:01:26.597Z,87.56
2023-02-08T00:03:55.967Z,88.06
2023-02-08T00:06:25.740Z,87.59
2023-02-08T00:08:54.813Z,87.94
2023-02-08T00:11:24.845Z,87.11
2023-02-08T00:13:53.766Z,86.55
2023-02-08T00:16:22.975Z,89.16
2023-02-08T00:18:54.000Z,89.14
2023-02-08T00:21:23.593Z,88.70
2023-02-08T00:23:53.285Z,89.29
2023-02-08T00:26:24.706Z,89.75
2023-02-08T00:28:54.821Z,89.97
2023-02-08T00:31:23.047Z,90.57
2023-02-08T00:33:56.078Z,90.47
2023-02-08T00:36:28.555Z,89.44
2023-02-08T00:38:57.754Z,90.33
2023-02-08T00:41:29.751Z,89.17
2023-02-08T00:43:57.995Z,89.22
2023-02-08T00:46:26.962Z,88.51
2023-02-08T00:48:55.957Z,88.84
2023-02-08T00:51:25.867Z,88.95
2023-02-08T00:53:55.158Z,89.14
2023-02-08T00:56:28.089Z,89.20
2023-02-08T00:58:57.686Z,88.98
2023-02-08T01:01:25.862Z,89.89
2023-02-08T01:03:54.659Z,89.59
2023-02-08T01:06:26.077Z,88.83
2023-02-08T01:08:54.769Z,88.95
2023-02-08T01:11:28.224Z,88.84
2023-02-08T01:14:01.775Z,89.01
2023-02-08T01:16:33.357Z,88.30
2023-02-08T01:19:05.077Z,88.66
2023-02-08T01:21:36.915Z,89.29
2023-02-08T01:26:56.634Z,89.78
2023-02-08T01:29:27.767Z,89.05
2023-02-08T01:31:57.421Z,89.78
2023-02-08T01:34:28.438Z,90.11
2023-02-08T01:37:03.538Z,89.24
2023-02-08T01:39:36.713Z,89.17
2023-02-08T01:45:25.479Z,88.34
2023-02-08T01:48:23.761Z,87.85
2023-02-08T01:51:14.959Z,87.63
2023-02-08T01:53:47.095Z,87.95
2023-02-08T01:56:47.141Z,88.36
2023-02-08T01:59:26.800Z,89.36
2023-02-08T02:01:58.396Z,90.10
2023-02-08T02:04:28.286Z,89.04
2023-02-08T02:07:01.926Z,89.27
2023-02-08T02:09:59.441Z,89.90
2023-02-08T02:12:33.148Z,89.61
2023-02-08T02:15:03.578Z,88.92
2023-02-08T02:17:33.785Z,89.50
2023-02-08T02:20:27.209Z,89.99
2023-02-08T02:23:22.166Z,90.40
2023-02-08T02:26:08.353Z,90.25
2023-02-08T02:29:01.870Z,89.81
2023-02-08T02:32:04.771Z,90.24
2023-02-08T02:34:45.669Z,90.36
2023-02-08T02:38:10.365Z,90.13
2023-02-08T02:40:57.360Z,89.84
2023-02-08T02:43:46.618Z,90.11
2023-02-08T02:46:54.387Z,89.82
2023-02-08T02:49:35.377Z,89.80
2023-02-08T02:52:20.448Z,91.15
2023-02-08T02:54:53.199Z,89.96
2023-02-08T02:57:29.540Z,89.87
2023-02-08T02:59:59.240Z,90.10
2023-02-08T03:02:32.608Z,91.19
2023-02-08T03:05:06.479Z,91.90
2023-02-08T03:07:59.346Z,91.79
2023-02-08T03:10:43.367Z,91.89
2023-02-08T03:13:57.100Z,91.24
2023-02-08T03:16:40.341Z,91.22
2023-02-08T03:19:18.452Z,92.46
2023-02-08T03:21:55.404Z,91.54
2023-02-08T03:25:02.487Z,91.91
2023-02-08T03:27:56.248Z,91.90
2023-02-08T03:31:07.409Z,91.68
2023-02-08T03:33:57.537Z,92.60
2023-02-08T03:36:49.298Z,91.26
2023-02-08T03:39:23.390Z,91.53
2023-02-08T03:41:59.309Z,91.23
2023-02-08T03:44:44.584Z,92.30
2023-02-08T03:47:30.568Z,91.67
2023-02-08T03:50:05.719Z,91.72
2023-02-08T03:52:36.652Z,92.15
2023-02-08T03:55:12.248Z,92.25
2023-02-08T03:57:59.095Z,91.31
2023-02-08T04:00:34.453Z,91.81
2023-02-08T04:03:13.838Z,92.12
2023-02-08T04:05:46.891Z,91.71
2023-02-08T04:08:14.834Z,92.39
2023-02-08T04:10:47.535Z,92.19
2023-02-08T04:13:16.329Z,92.09
2023-02-08T04:15:45.326Z,92.27
2023-02-08T04:18:14.189Z,91.35
2023-02-08T04:20:43.364Z,91.18
2023-02-08T04:23:11.755Z,91.10
2023-02-08T04:25:41.020Z,90.80
2023-02-08T04:28:12.494Z,91.85
2023-02-08T04:30:42.016Z,90.83
2023-02-08T04:33:14.409Z,90.62
2023-02-08T04:35:43.768Z,90.69
2023-02-08T04:38:12.894Z,90.57
2023-02-08T04:40:42.243Z,90.91
2023-02-08T04:43:12.145Z,90.49
2023-02-08T04:45:41.149Z,90.35
2023-02-08T04:48:11.978Z,90.57
2023-02-08T04:50:41.097Z,90.43
2023-02-08T04:53:10.182Z,90.66
2023-02-08T04:55:39.089Z,91.16
2023-02-08T04:58:10.906Z,89.97
2023-02-08T05:00:40.898Z,90.84
2023-02-08T05:03:13.374Z,89.74
2023-02-08T05:05:42.605Z,90.08
2023-02-08T05:08:12.012Z,90.78
2023-02-08T05:10:46.700Z,90.38
2023-02-08T05:13:15.877Z,89.64
2023-02-08T05:15:45.815Z,90.02
2023-02-08T05:18:14.799Z,89.82
2023-02-08T05:20:43.741Z,90.60
2023-02-08T05:23:13.038Z,91.60
2023-02-08T05:25:44.907Z,90.79
2023-02-08T05:28:14.278Z,90.28
2023-02-08T05:30:43.899Z,89.53
2023-02-08T05:33:13.333Z,89.67
2023-02-08T05:35:45.878Z,89.14
2023-02-08T05:38:15.700Z,89.88
2023-02-08T05:40:45.498Z,89.35
2023-02-08T05:43:14.779Z,89.27
2023-02-08T05:45:46.846Z,89.50
2023-02-08T05:48:15.859Z,89.45
2023-02-08T05:50:46.046Z,88.68
2023-02-08T05:53:15.593Z,89.18
2023-02-08T05:55:51.692Z,89.54
2023-02-08T05:58:24.534Z,89.94
2023-02-08T06:00:54.877Z,89.00
2023-02-08T06:03:24.193Z,89.46
2023-02-08T06:05:53.881Z,88.48
2023-02-08T06:08:22.742Z,88.64
2023-02-08T06:10:54.714Z,87.86
2023-02-08T06:13:24.732Z,87.61
2023-02-08T06:15:53.750Z,86.92
2023-02-08T06:18:24.519Z,85.63
2023-02-08T06:20:56.015Z,85.35
2023-02-08T06:23:25.772Z,84.90
2023-02-08T06:25:54.742Z,86.23
2023-02-08T06:28:24.524Z,85.13
2023-02-08T06:30:56.484Z,85.64
2023-02-08T06:33:25.545Z,85.25
2023-02-08T06:36:03.014Z,84.46
2023-02-08T06:38:31.840Z,83.64
2023-02-08T06:41:02.561Z,82.65
2023-02-08T06:43:34.133Z,81.60
2023-02-08T06:46:05.994Z,81.52
2023-02-08T06:48:38.094Z,82.15
2023-02-08T06:51:08.576Z,81.03
2023-02-08T06:53:38.251Z,81.09
2023-02-08T06:56:12.864Z,81.04
2023-02-08T06:58:45.366Z,79.57
2023-02-08T07:01:19.847Z,79.46
2023-02-08T07:03:50.243Z,79.60
2023-02-08T07:06:21.874Z,79.24
2023-02-08T07:08:53.521Z,77.93
2023-02-08T07:11:25.171Z,77.30
2023-02-08T07:13:56.078Z,76.63
2023-02-08T07:16:35.449Z,77.21
2023-02-08T07:19:04.128Z,77.17
2023-02-08T07:21:34.608Z,76.79
2023-02-08T07:24:05.899Z,76.89
2023-02-08T07:26:34.891Z,76.68
2023-02-08T07:29:02.965Z,77.10
2023-02-08T07:31:32.971Z,75.70
2023-02-08T07:34:02.550Z,74.94
2023-02-08T07:36:32.715Z,74.21
2023-02-08T07:42:01.277Z,73.08
2023-02-08T07:44:30.960Z,71.97
2023-02-08T07:47:02.436Z,71.26
2023-02-08T07:49:32.563Z,72.11
2023-02-08T07:52:02.989Z,72.67
2023-02-08T07:54:35.074Z,70.89
2023-02-08T07:57:05.036Z,71.31
2023-02-08T07:59:36.206Z,71.09
2023-02-08T08:02:05.367Z,69.86
2023-02-08T08:04:35.065Z,70.73
2023-02-08T08:07:03.773Z,69.77
2023-02-08T08:09:34.160Z,71.08
2023-02-08T08:12:03.561Z,70.12
2023-02-08T08:14:32.795Z,69.49
2023-02-08T08:17:02.459Z,70.30
2023-02-08T08:19:35.405Z,69.30
2023-02-08T08:22:03.643Z,69.08
2023-02-08T08:24:35.878Z,69.72
2023-02-08T08:27:13.438Z,68.75
2023-02-08T08:29:44.594Z,69.37
2023-02-08T08:32:13.772Z,67.72
2023-02-08T08:34:43.055Z,68.69
2023-02-08T08:37:12.050Z,68.67
2023-02-08T08:39:41.151Z,68.15
2023-02-08T08:42:13.012Z,66.96
2023-02-08T08:44:41.820Z,66.83
2023-02-08T08:47:11.363Z,66.85
2023-02-08T08:49:39.911Z,66.71
2023-02-08T08:52:10.284Z,66.00
2023-02-08T08:54:39.967Z,65.21
2023-02-08T08:57:09.145Z,64.72
2023-02-08T08:59:40.697Z,66.51
2023-02-08T09:02:14.602Z,66.66
2023-02-08T09:04:48.228Z,65.24
2023-02-08T09:07:18.311Z,65.38
2023-02-08T09:09:51.024Z,66.51
2023-02-08T09:12:21.677Z,63.65
2023-02-08T09:14:49.923Z,63.44
2023-02-08T09:17:20.505Z,63.60
2023-02-08T09:19:49.838Z,63.20
2023-02-08T09:22:20.990Z,62.04
2023-02-08T09:24:55.437Z,60.84
2023-02-08T09:27:24.626Z,61.38
2023-02-08T09:29:55.981Z,61.79
2023-02-08T09:32:25.604Z,63.02
2023-02-08T09:34:57.370Z,61.73
2023-02-08T09:37:26.368Z,62.28
2023-02-08T09:39:56.326Z,61.47
2023-02-08T09:42:39.991Z,60.48
2023-02-08T09:45:58.948Z,62.97
2023-02-08T09:48:36.097Z,59.77
2023-02-08T09:51:49.041Z,59.48
2023-02-08T09:54:30.998Z,58.54
2023-02-08T09:57:04.989Z,58.44
2023-02-08T09:59:37.402Z,58.38
2023-02-08T10:02:30.243Z,57.50
2023-02-08T10:05:14.173Z,56.39
2023-02-08T10:07:44.171Z,57.19
2023-02-08T10:10:20.880Z,57.29
2023-02-08T10:13:27.610Z,56.78
2023-02-08T10:16:19.758Z,55.79
2023-02-08T10:19:17.547Z,54.68
2023-02-08T10:22:04.212Z,56.08
2023-02-08T10:25:07.741Z,56.34
2023-02-08T10:28:14.461Z,55.70
2023-02-08T10:36:28.529Z,55.17
2023-02-08T10:39:01.105Z,54.44
2023-02-08T10:41:37.826Z,54.67
2023-02-08T10:45:01.796Z,54.73
2023-02-08T10:47:48.385Z,55.63
2023-02-08T10:50:54.152Z,54.17
2023-02-08T10:53:23.791Z,53.33
2023-02-08T10:55:59.382Z,53.18
2023-02-08T12:17:42.721Z,53.57
2023-02-08T20:15:29.869Z,89.69
2023-02-08T20:17:58.854Z,90.60
2023-02-08T20:20:27.896Z,89.63
2023-02-08T20:23:00.547Z,90.18
2023-02-08T20:25:35.868Z,89.61
2023-02-08T20:28:13.354Z,89.73
2023-02-08T20:30:43.013Z,89.77
2023-02-08T20:33:25.912Z,89.34
2023-02-08T20:35:58.141Z,89.17
2023-02-08T20:38:40.222Z,89.68
2023-02-08T20:41:14.972Z,90.31
2023-02-08T20:43:45.872Z,90.26
2023-02-08T20:46:23.401Z,91.05
2023-02-08T20:48:53.631Z,90.64
2023-02-08T20:51:23.556Z,91.15
2023-02-08T20:53:59.235Z,90.69
2023-02-08T20:56:41.531Z,91.70
2023-02-08T20:59:16.209Z,91.64
2023-02-08T21:01:48.278Z,92.14
2023-02-08T21:04:24.160Z,90.99
2023-02-08T21:06:58.449Z,91.28
2023-02-08T21:09:29.856Z,92.37
2023-02-08T21:14:44.889Z,91.72
2023-02-08T21:17:19.041Z,91.68
2023-02-08T21:19:51.916Z,91.92
2023-02-08T21:22:26.013Z,90.92
2023-02-08T21:24:55.288Z,91.03
2023-02-08T21:27:25.414Z,91.06
2023-02-08T21:29:54.569Z,91.90
2023-02-08T21:32:25.670Z,91.60
2023-02-08T21:34:57.779Z,91.58
2023-02-08T21:37:26.517Z,92.14
2023-02-08T22:57:15.603Z,93.08
2023-02-08T23:03:29.968Z,94.07
2023-02-08T23:40:41.436Z,94.07
2023-02-08T23:43:29.067Z,94.13
2023-02-08T23:57:40.621Z,94.47
